sensor_id;sensor_type;location;lat;lon;timestamp;pressure;altitude;pressure_sealevel;temperature;humidity
60244;BME280;46106;51.468;5.814;2023-05-23T00:00:41;101483.75;;;14.70;100.00
60244;BME280;46106;51.468;5.814;2023-05-23T00:03:06;101493.53;;;14.74;100.00
60244;BME280;46106;51.468;5.814;2023-05-23T00:05:33;101484.41;;;14.62;100.00
60244;BME280;46106;51.468;5.814;2023-05-23T00:07:59;101490.81;;;14.63;100.00
60244;BME280;46106;51.468;5.814;2023-05-23T00:10:25;101489.78;;;14.64;100.00
60244;BME280;46106;51.468;5.814;2023-05-23T00:12:51;101491.56;;;14.65;100.00
60244;BME280;46106;51.468;5.814;2023-05-23T00:15:17;101494.53;;;14.73;100.00
60244;BME280;46106;51.468;5.814;2023-05-23T00:17:44;101505.75;;;14.81;100.00
60244;BME280;46106;51.468;5.814;2023-05-23T00:20:09;101487.25;;;14.72;100.00
60244;BME280;46106;51.468;5.814;2023-05-23T00:22:37;101501.81;;;14.74;100.00
60244;BME280;46106;51.468;5.814;2023-05-23T00:25:10;101498.16;;;14.74;100.00
60244;BME280;46106;51.468;5.814;2023-05-23T00:27:35;101486.38;;;14.72;100.00
60244;BME280;46106;51.468;5.814;2023-05-23T00:30:02;101496.50;;;14.82;100.00
60244;BME280;46106;51.468;5.814;2023-05-23T00:32:28;101499.78;;;14.76;100.00
60244;BME280;46106;51.468;5.814;2023-05-23T00:34:53;101493.31;;;14.66;100.00
60244;BME280;46106;51.468;5.814;2023-05-23T00:37:20;101506.28;;;14.75;100.00
60244;BME280;46106;51.468;5.814;2023-05-23T00:39:47;101506.19;;;14.65;100.00
60244;BME280;46106;51.468;5.814;2023-05-23T00:42:12;101509.59;;;14.58;100.00
60244;BME280;46106;51.468;5.814;2023-05-23T00:44:38;101509.22;;;14.62;100.00
60244;BME280;46106;51.468;5.814;2023-05-23T00:47:06;101509.75;;;14.56;100.00
60244;BME280;46106;51.468;5.814;2023-05-23T00:49:32;101511.34;;;14.59;100.00
60244;BME280;46106;51.468;5.814;2023-05-23T00:51:58;101509.56;;;14.69;100.00
60244;BME280;46106;51.468;5.814;2023-05-23T00:54:29;101510.25;;;14.61;100.00
60244;BME280;46106;51.468;5.814;2023-05-23T00:56:57;101525.03;;;14.60;100.00
60244;BME280;46106;51.468;5.814;2023-05-23T00:59:24;101515.75;;;14.61;100.00
60244;BME280;46106;51.468;5.814;2023-05-23T01:04:25;101524.16;;;14.60;100.00
60244;BME280;46106;51.468;5.814;2023-05-23T01:51:43;101549.34;;;14.44;100.00
60244;BME280;46106;51.468;5.814;2023-05-23T01:54:12;101543.84;;;14.32;100.00
60244;BME280;46106;51.468;5.814;2023-05-23T01:56:38;101542.50;;;14.27;100.00
60244;BME280;46106;51.468;5.814;2023-05-23T01:59:04;101549.63;;;14.29;100.00
60244;BME280;46106;51.468;5.814;2023-05-23T02:24:48;101568.66;;;14.21;100.00
60244;BME280;46106;51.468;5.814;2023-05-23T02:27:13;101562.41;;;14.19;100.00
60244;BME280;46106;51.468;5.814;2023-05-23T02:29:39;101570.19;;;14.14;100.00
60244;BME280;46106;51.468;5.814;2023-05-23T02:32:05;101568.19;;;14.05;100.00
60244;BME280;46106;51.468;5.814;2023-05-23T02:34:30;101576.09;;;14.09;100.00
60244;BME280;46106;51.468;5.814;2023-05-23T02:36:56;101581.34;;;14.12;100.00
60244;BME280;46106;51.468;5.814;2023-05-23T02:39:21;101577.19;;;14.07;100.00
60244;BME280;46106;51.468;5.814;2023-05-23T02:41:47;101573.09;;;14.01;100.00
60244;BME280;46106;51.468;5.814;2023-05-23T02:44:12;101580.47;;;14.01;100.00
60244;BME280;46106;51.468;5.814;2023-05-23T02:46:38;101573.69;;;14.05;100.00
60244;BME280;46106;51.468;5.814;2023-05-23T02:49:03;101575.47;;;13.94;100.00
60244;BME280;46106;51.468;5.814;2023-05-23T02:51:29;101575.34;;;13.96;100.00
60244;BME280;46106;51.468;5.814;2023-05-23T02:53:55;101570.34;;;13.90;100.00
60244;BME280;46106;51.468;5.814;2023-05-23T02:56:21;101558.22;;;13.92;100.00
60244;BME280;46106;51.468;5.814;2023-05-23T03:01:22;101572.34;;;13.88;100.00
60244;BME280;46106;51.468;5.814;2023-05-23T03:21:53;101590.09;;;13.95;100.00
60244;BME280;46106;51.468;5.814;2023-05-23T03:24:19;101596.88;;;13.91;100.00
60244;BME280;46106;51.468;5.814;2023-05-23T03:26:45;101583.72;;;13.83;100.00
60244;BME280;46106;51.468;5.814;2023-05-23T03:29:10;101591.13;;;13.83;100.00
60244;BME280;46106;51.468;5.814;2023-05-23T03:31:36;101593.88;;;13.83;100.00
60244;BME280;46106;51.468;5.814;2023-05-23T03:34:02;101598.72;;;13.90;100.00
60244;BME280;46106;51.468;5.814;2023-05-23T03:49:25;101617.50;;;13.74;100.00
60244;BME280;46106;51.468;5.814;2023-05-23T03:51:51;101614.00;;;13.83;100.00
60244;BME280;46106;51.468;5.814;2023-05-23T03:54:17;101605.34;;;13.65;100.00
60244;BME280;46106;51.468;5.814;2023-05-23T04:17:24;101622.13;;;13.73;100.00
60244;BME280;46106;51.468;5.814;2023-05-23T04:19:50;101619.13;;;13.76;100.00
60244;BME280;46106;51.468;5.814;2023-05-23T04:22:16;101622.25;;;13.72;100.00
60244;BME280;46106;51.468;5.814;2023-05-23T04:24:42;101623.78;;;13.76;100.00
60244;BME280;46106;51.468;5.814;2023-05-23T04:27:07;101631.25;;;13.85;100.00
60244;BME280;46106;51.468;5.814;2023-05-23T04:34:44;101627.16;;;13.79;100.00
60244;BME280;46106;51.468;5.814;2023-05-23T04:37:10;101642.03;;;13.88;100.00
60244;BME280;46106;51.468;5.814;2023-05-23T04:39:35;101619.13;;;13.76;100.00
60244;BME280;46106;51.468;5.814;2023-05-23T04:42:02;101635.28;;;13.92;100.00
60244;BME280;46106;51.468;5.814;2023-05-23T04:44:28;101640.69;;;13.94;100.00
60244;BME280;46106;51.468;5.814;2023-05-23T04:46:54;101647.78;;;13.96;100.00
60244;BME280;46106;51.468;5.814;2023-05-23T04:49:20;101645.41;;;13.92;100.00
60244;BME280;46106;51.468;5.814;2023-05-23T04:51:47;101647.16;;;13.93;100.00
60244;BME280;46106;51.468;5.814;2023-05-23T04:54:12;101641.31;;;13.97;100.00
60244;BME280;46106;51.468;5.814;2023-05-23T07:09:04;101782.06;;;12.96;100.00
60244;BME280;46106;51.468;5.814;2023-05-23T07:11:30;101786.59;;;12.97;100.00
60244;BME280;46106;51.468;5.814;2023-05-23T07:13:56;101785.47;;;12.87;100.00
60244;BME280;46106;51.468;5.814;2023-05-23T07:16:21;101785.56;;;12.98;100.00
60244;BME280;46106;51.468;5.814;2023-05-23T07:18:47;101787.00;;;13.04;100.00
60244;BME280;46106;51.468;5.814;2023-05-23T07:21:12;101775.00;;;13.05;100.00
60244;BME280;46106;51.468;5.814;2023-05-23T07:23:39;101789.75;;;13.04;100.00
60244;BME280;46106;51.468;5.814;2023-05-23T07:33:50;101800.56;;;12.94;100.00
60244;BME280;46106;51.468;5.814;2023-05-23T07:36:16;101803.72;;;13.01;100.00
60244;BME280;46106;51.468;5.814;2023-05-23T07:38:42;101812.84;;;13.01;100.00
60244;BME280;46106;51.468;5.814;2023-05-23T07:41:07;101801.47;;;13.19;100.00
60244;BME280;46106;51.468;5.814;2023-05-23T07:43:33;101812.66;;;13.41;100.00
60244;BME280;46106;51.468;5.814;2023-05-23T07:45:58;101813.09;;;13.35;100.00
60244;BME280;46106;51.468;5.814;2023-05-23T07:48:24;101813.66;;;13.15;100.00
60244;BME280;46106;51.468;5.814;2023-05-23T07:50:51;101811.78;;;13.28;100.00
60244;BME280;46106;51.468;5.814;2023-05-23T07:53:20;101824.06;;;13.48;100.00
60244;BME280;46106;51.468;5.814;2023-05-23T07:55:45;101821.78;;;13.66;100.00
60244;BME280;46106;51.468;5.814;2023-05-23T08:21:28;101839.25;;;15.17;100.00
60244;BME280;46106;51.468;5.814;2023-05-23T08:23:53;101839.88;;;15.64;100.00
60244;BME280;46106;51.468;5.814;2023-05-23T08:26:19;101850.53;;;15.69;100.00
60244;BME280;46106;51.468;5.814;2023-05-23T08:28:45;101837.81;;;15.45;100.00
60244;BME280;46106;51.468;5.814;2023-05-23T08:31:10;101844.53;;;15.52;100.00
60244;BME280;46106;51.468;5.814;2023-05-23T08:33:36;101828.81;;;15.32;100.00
60244;BME280;46106;51.468;5.814;2023-05-23T08:36:01;101836.88;;;15.01;100.00
60244;BME280;46106;51.468;5.814;2023-05-23T08:38:27;101842.25;;;14.91;100.00
60244;BME280;46106;51.468;5.814;2023-05-23T08:48:38;101839.75;;;14.99;100.00
60244;BME280;46106;51.468;5.814;2023-05-23T08:53:41;101850.88;;;14.64;100.00
60244;BME280;46106;51.468;5.814;2023-05-23T08:56:11;101856.16;;;14.89;100.00
60244;BME280;46106;51.468;5.814;2023-05-23T09:08:54;101869.84;;;15.02;100.00
60244;BME280;46106;51.468;5.814;2023-05-23T09:22:34;101874.34;;;14.81;100.00
60244;BME280;46106;51.468;5.814;2023-05-23T09:30:11;101872.28;;;15.39;100.00
60244;BME280;46106;51.468;5.814;2023-05-23T09:32:37;101884.34;;;15.38;100.00
60244;BME280;46106;51.468;5.814;2023-05-23T10:23:45;101903.06;;;16.01;100.00
60244;BME280;46106;51.468;5.814;2023-05-23T10:34:20;101912.28;;;16.11;100.00
60244;BME280;46106;51.468;5.814;2023-05-23T10:36:55;101912.84;;;16.26;100.00
60244;BME280;46106;51.468;5.814;2023-05-23T13:33:33;101947.53;;;17.86;65.16
60244;BME280;46106;51.468;5.814;2023-05-23T14:14:47;101940.34;;;17.74;61.92
60244;BME280;46106;51.468;5.814;2023-05-23T14:17:15;101937.81;;;17.61;61.14
60244;BME280;46106;51.468;5.814;2023-05-23T14:19:41;101932.19;;;17.72;61.09
60244;BME280;46106;51.468;5.814;2023-05-23T14:22:07;101942.19;;;17.54;60.36
60244;BME280;46106;51.468;5.814;2023-05-23T14:24:32;101942.19;;;17.54;64.40
60244;BME280;46106;51.468;5.814;2023-05-23T14:26:58;101945.19;;;17.41;65.45
60244;BME280;46106;51.468;5.814;2023-05-23T14:29:23;101945.41;;;17.59;64.81
60244;BME280;46106;51.468;5.814;2023-05-23T14:31:49;101935.56;;;17.76;63.18
60244;BME280;46106;51.468;5.814;2023-05-23T14:34:14;101946.03;;;17.72;63.37
60244;BME280;46106;51.468;5.814;2023-05-23T14:36:39;101947.97;;;17.81;62.73
60244;BME280;46106;51.468;5.814;2023-05-23T14:39:05;101943.53;;;17.69;64.06
60244;BME280;46106;51.468;5.814;2023-05-23T14:41:32;101946.91;;;17.63;63.00
60244;BME280;46106;51.468;5.814;2023-05-23T14:43:57;101954.78;;;17.68;62.70
60244;BME280;46106;51.468;5.814;2023-05-23T14:46:23;101959.09;;;17.51;60.91
60244;BME280;46106;51.468;5.814;2023-05-23T14:48:48;101948.69;;;17.33;61.13
60244;BME280;46106;51.468;5.814;2023-05-23T14:51:13;101944.91;;;17.44;60.96
60244;BME280;46106;51.468;5.814;2023-05-23T14:53:39;101949.44;;;17.45;58.98
60244;BME280;46106;51.468;5.814;2023-05-23T14:56:04;101955.47;;;17.60;61.24
60244;BME280;46106;51.468;5.814;2023-05-23T14:58:30;101949.72;;;17.42;59.32
60244;BME280;46106;51.468;5.814;2023-05-23T15:00:55;101953.09;;;17.45;60.64
60244;BME280;46106;51.468;5.814;2023-05-23T15:03:21;101943.41;;;17.30;60.74
60244;BME280;46106;51.468;5.814;2023-05-23T15:05:47;101949.81;;;17.00;61.64
60244;BME280;46106;51.468;5.814;2023-05-23T15:08:13;101949.47;;;16.93;60.34
60244;BME280;46106;51.468;5.814;2023-05-23T15:10:38;101943.81;;;17.25;60.45
60244;BME280;46106;51.468;5.814;2023-05-23T15:13:03;101942.16;;;17.13;61.92
60244;BME280;46106;51.468;5.814;2023-05-23T15:15:29;101940.03;;;17.26;61.34
60244;BME280;46106;51.468;5.814;2023-05-23T15:18:04;101942.00;;;17.15;62.23
60244;BME280;46106;51.468;5.814;2023-05-23T15:20:35;101950.53;;;16.81;63.84
60244;BME280;46106;51.468;5.814;2023-05-23T15:23:04;101952.13;;;16.62;62.47
60244;BME280;46106;51.468;5.814;2023-05-23T15:25:30;101942.66;;;16.76;64.23
60244;BME280;46106;51.468;5.814;2023-05-23T15:27:55;101944.28;;;17.00;64.31
60244;BME280;46106;51.468;5.814;2023-05-23T15:30:22;101945.00;;;16.81;62.22
60244;BME280;46106;51.468;5.814;2023-05-23T15:32:47;101937.72;;;16.80;63.67
60244;BME280;46106;51.468;5.814;2023-05-23T15:35:13;101944.13;;;16.80;61.98
60244;BME280;46106;51.468;5.814;2023-05-23T15:37:40;101941.00;;;16.73;61.50
60244;BME280;46106;51.468;5.814;2023-05-23T15:40:07;101935.69;;;16.82;61.88
60244;BME280;46106;51.468;5.814;2023-05-23T15:42:33;101925.78;;;16.79;61.48
60244;BME280;46106;51.468;5.814;2023-05-23T15:44:59;101940.13;;;16.52;61.43
60244;BME280;46106;51.468;5.814;2023-05-23T15:47:25;101948.31;;;16.21;63.00
60244;BME280;46106;51.468;5.814;2023-05-23T15:49:51;101940.41;;;16.49;62.48
60244;BME280;46106;51.468;5.814;2023-05-23T15:52:16;101934.69;;;16.62;64.89
60244;BME280;46106;51.468;5.814;2023-05-23T15:54:42;101938.44;;;16.61;61.92
60244;BME280;46106;51.468;5.814;2023-05-23T15:57:07;101948.31;;;16.75;62.98
60244;BME280;46106;51.468;5.814;2023-05-23T15:59:35;101933.94;;;16.60;61.63
60244;BME280;46106;51.468;5.814;2023-05-23T16:02:01;101935.53;;;16.83;63.76
60244;BME280;46106;51.468;5.814;2023-05-23T16:04:33;101955.25;;;16.69;61.13
60244;BME280;46106;51.468;5.814;2023-05-23T16:07:03;101954.28;;;16.38;62.85
60244;BME280;46106;51.468;5.814;2023-05-23T16:09:28;101956.25;;;16.14;61.44
60244;BME280;46106;51.468;5.814;2023-05-23T16:11:58;101944.38;;;15.91;63.59
60244;BME280;46106;51.468;5.814;2023-05-23T16:14:23;101950.28;;;15.87;64.35
60244;BME280;46106;51.468;5.814;2023-05-23T16:16:49;101948.47;;;16.08;65.14
60244;BME280;46106;51.468;5.814;2023-05-23T16:19:14;101940.81;;;16.12;65.43
60244;BME280;46106;51.468;5.814;2023-05-23T16:21:40;101952.88;;;16.11;65.47
60244;BME280;46106;51.468;5.814;2023-05-23T16:24:05;101943.22;;;16.05;63.79
60244;BME280;46106;51.468;5.814;2023-05-23T16:26:31;101950.56;;;16.27;65.09
60244;BME280;46106;51.468;5.814;2023-05-23T16:28:57;101956.22;;;16.26;62.99
60244;BME280;46106;51.468;5.814;2023-05-23T16:31:26;101953.44;;;16.26;63.97
60244;BME280;46106;51.468;5.814;2023-05-23T16:33:52;101947.81;;;16.16;64.60
60244;BME280;46106;51.468;5.814;2023-05-23T16:36:18;101947.31;;;16.22;64.80
60244;BME280;46106;51.468;5.814;2023-05-23T16:38:43;101947.78;;;16.27;64.55
60244;BME280;46106;51.468;5.814;2023-05-23T16:41:09;101956.50;;;16.44;63.75
60244;BME280;46106;51.468;5.814;2023-05-23T16:43:34;101942.94;;;16.41;61.51
60244;BME280;46106;51.468;5.814;2023-05-23T16:46:00;101946.16;;;16.25;60.89
60244;BME280;46106;51.468;5.814;2023-05-23T16:48:26;101944.41;;;16.24;63.58
60244;BME280;46106;51.468;5.814;2023-05-23T16:50:56;101951.66;;;16.04;62.06
60244;BME280;46106;51.468;5.814;2023-05-23T16:53:21;101940.81;;;16.12;63.47
60244;BME280;46106;51.468;5.814;2023-05-23T16:55:47;101950.41;;;16.29;62.69
60244;BME280;46106;51.468;5.814;2023-05-23T16:58:12;101945.03;;;16.27;62.17
60244;BME280;46106;51.468;5.814;2023-05-23T17:00:38;101943.69;;;16.22;64.11
60244;BME280;46106;51.468;5.814;2023-05-23T17:03:04;101942.34;;;16.05;63.03
60244;BME280;46106;51.468;5.814;2023-05-23T17:05:31;101958.31;;;16.01;63.72
60244;BME280;46106;51.468;5.814;2023-05-23T17:07:56;101960.97;;;15.91;62.72
60244;BME280;46106;51.468;5.814;2023-05-23T17:10:22;101965.75;;;15.78;63.50
60244;BME280;46106;51.468;5.814;2023-05-23T17:12:47;101957.69;;;15.75;64.00
60244;BME280;46106;51.468;5.814;2023-05-23T17:15:13;101964.34;;;15.72;64.34
60244;BME280;46106;51.468;5.814;2023-05-23T17:17:39;101952.81;;;15.67;64.42
60244;BME280;46106;51.468;5.814;2023-05-23T17:20:07;101952.69;;;15.69;63.57
60244;BME280;46106;51.468;5.814;2023-05-23T17:22:32;101956.34;;;15.69;64.70
60244;BME280;46106;51.468;5.814;2023-05-23T17:24:58;101947.91;;;15.82;63.74
60244;BME280;46106;51.468;5.814;2023-05-23T17:27:25;101960.47;;;15.86;64.18
60244;BME280;46106;51.468;5.814;2023-05-23T17:29:50;101948.94;;;15.58;64.13
60244;BME280;46106;51.468;5.814;2023-05-23T17:32:16;101941.28;;;15.51;64.18
60244;BME280;46106;51.468;5.814;2023-05-23T17:34:41;101957.59;;;15.31;63.13
60244;BME280;46106;51.468;5.814;2023-05-23T17:37:08;101959.47;;;15.19;63.23
60244;BME280;46106;51.468;5.814;2023-05-23T17:39:35;101954.72;;;15.21;64.34
60244;BME280;46106;51.468;5.814;2023-05-23T17:42:01;101951.41;;;14.94;64.62
60244;BME280;46106;51.468;5.814;2023-05-23T17:44:28;101957.06;;;15.03;65.23
60244;BME280;46106;51.468;5.814;2023-05-23T17:46:53;101968.22;;;15.02;65.14
60244;BME280;46106;51.468;5.814;2023-05-23T17:49:19;101962.22;;;14.97;65.94
60244;BME280;46106;51.468;5.814;2023-05-23T17:51:44;101971.25;;;14.87;67.04
60244;BME280;46106;51.468;5.814;2023-05-23T17:54:13;101962.34;;;14.84;65.43
60244;BME280;46106;51.468;5.814;2023-05-23T17:56:38;101973.56;;;14.69;66.14
60244;BME280;46106;51.468;5.814;2023-05-23T17:59:04;101974.34;;;14.83;65.00
60244;BME280;46106;51.468;5.814;2023-05-23T18:01:30;101975.06;;;14.74;66.89
60244;BME280;46106;51.468;5.814;2023-05-23T18:03:55;101950.47;;;14.59;67.69
60244;BME280;46106;51.468;5.814;2023-05-23T18:06:21;101975.09;;;14.49;67.03
60244;BME280;46106;51.468;5.814;2023-05-23T18:08:46;101971.72;;;14.57;68.25
60244;BME280;46106;51.468;5.814;2023-05-23T18:11:12;101980.06;;;14.44;67.76
60244;BME280;46106;51.468;5.814;2023-05-23T18:13:38;101976.28;;;14.34;69.38
60244;BME280;46106;51.468;5.814;2023-05-23T18:16:03;101976.88;;;14.26;70.07
60244;BME280;46106;51.468;5.814;2023-05-23T18:18:29;101970.72;;;14.23;69.91
60244;BME280;46106;51.468;5.814;2023-05-23T18:20:54;101991.78;;;14.24;69.13
60244;BME280;46106;51.468;5.814;2023-05-23T18:23:23;101987.31;;;14.34;69.17
60244;BME280;46106;51.468;5.814;2023-05-23T18:25:49;101991.47;;;14.15;70.70
60244;BME280;46106;51.468;5.814;2023-05-23T18:28:14;101989.28;;;14.08;71.14
60244;BME280;46106;51.468;5.814;2023-05-23T18:30:40;101999.22;;;14.10;69.80
60244;BME280;46106;51.468;5.814;2023-05-23T18:33:05;101986.13;;;14.01;72.21
60244;BME280;46106;51.468;5.814;2023-05-23T18:35:31;101999.72;;;13.91;70.69
60244;BME280;46106;51.468;5.814;2023-05-23T18:37:56;101998.19;;;13.87;72.78
60244;BME280;46106;51.468;5.814;2023-05-23T18:40:22;102001.81;;;13.88;72.83
60244;BME280;46106;51.468;5.814;2023-05-23T18:42:48;101998.09;;;13.89;75.43
60244;BME280;46106;51.468;5.814;2023-05-23T18:45:14;101992.84;;;13.73;74.73
60244;BME280;46106;51.468;5.814;2023-05-23T18:47:40;102003.97;;;13.71;75.41
60244;BME280;46106;51.468;5.814;2023-05-23T18:50:07;101993.41;;;13.65;75.01
60244;BME280;46106;51.468;5.814;2023-05-23T18:52:33;101994.88;;;13.45;76.36
60244;BME280;46106;51.468;5.814;2023-05-23T18:55:02;101995.28;;;13.52;75.58
60244;BME280;46106;51.468;5.814;2023-05-23T18:57:27;101980.31;;;13.30;79.33
60244;BME280;46106;51.468;5.814;2023-05-23T18:59:53;101996.63;;;13.20;77.43
60244;BME280;46106;51.468;5.814;2023-05-23T19:02:18;101992.75;;;13.23;77.68
60244;BME280;46106;51.468;5.814;2023-05-23T19:04:44;101992.63;;;13.12;80.06
60244;BME280;46106;51.468;5.814;2023-05-23T19:07:09;101998.13;;;13.12;81.31
60244;BME280;46106;51.468;5.814;2023-05-23T19:23:58;102041.31;;;12.71;83.52
60244;BME280;46106;51.468;5.814;2023-05-23T19:45:06;102057.41;;;12.23;90.02
60244;BME280;46106;51.468;5.814;2023-05-23T19:50:09;102075.47;;;12.12;91.04
60244;BME280;46106;51.468;5.814;2023-05-23T19:52:37;102056.94;;;12.02;89.78
60244;BME280;46106;51.468;5.814;2023-05-23T19:55:03;102074.31;;;12.02;88.37
60244;BME280;46106;51.468;5.814;2023-05-23T19:57:28;102081.28;;;11.93;91.14
60244;BME280;46106;51.468;5.814;2023-05-23T19:59:53;102076.84;;;11.91;91.60
60244;BME280;46106;51.468;5.814;2023-05-23T20:02:19;102083.16;;;11.93;90.79
60244;BME280;46106;51.468;5.814;2023-05-23T20:04:44;102082.72;;;11.85;90.65
60244;BME280;46106;51.468;5.814;2023-05-23T20:07:10;102079.31;;;11.81;93.01
60244;BME280;46106;51.468;5.814;2023-05-23T20:09:36;102085.28;;;11.73;92.57
60244;BME280;46106;51.468;5.814;2023-05-23T20:12:01;102089.13;;;11.71;92.79
60244;BME280;46106;51.468;5.814;2023-05-23T20:22:08;102106.63;;;11.54;97.46
60244;BME280;46106;51.468;5.814;2023-05-23T20:27:09;102104.69;;;11.42;98.18
60244;BME280;46106;51.468;5.814;2023-05-23T20:32:09;102111.00;;;11.28;99.81
60244;BME280;46106;51.468;5.814;2023-05-23T20:44:55;102119.00;;;11.16;100.00
60244;BME280;46106;51.468;5.814;2023-05-23T20:47:21;102129.28;;;11.13;100.00
60244;BME280;46106;51.468;5.814;2023-05-23T20:49:46;102127.63;;;11.10;100.00
60244;BME280;46106;51.468;5.814;2023-05-23T20:52:13;102127.00;;;11.05;100.00
60244;BME280;46106;51.468;5.814;2023-05-23T20:54:38;102128.00;;;11.04;100.00
60244;BME280;46106;51.468;5.814;2023-05-23T20:57:06;102120.50;;;10.92;100.00
60244;BME280;46106;51.468;5.814;2023-05-23T20:59:32;102128.72;;;10.92;100.00
60244;BME280;46106;51.468;5.814;2023-05-23T21:01:57;102122.56;;;10.88;100.00
60244;BME280;46106;51.468;5.814;2023-05-23T21:04:22;102125.97;;;10.92;100.00
60244;BME280;46106;51.468;5.814;2023-05-23T21:06:48;102113.28;;;10.91;100.00
60244;BME280;46106;51.468;5.814;2023-05-23T21:09:14;102129.91;;;10.88;100.00
60244;BME280;46106;51.468;5.814;2023-05-23T21:11:41;102121.06;;;10.82;100.00
60244;BME280;46106;51.468;5.814;2023-05-23T21:14:06;102116.81;;;10.77;100.00
60244;BME280;46106;51.468;5.814;2023-05-23T21:16:32;102123.09;;;10.79;100.00
60244;BME280;46106;51.468;5.814;2023-05-23T21:18:57;102133.25;;;10.77;100.00
60244;BME280;46106;51.468;5.814;2023-05-23T21:21:23;102129.13;;;10.70;100.00
60244;BME280;46106;51.468;5.814;2023-05-23T21:23:48;102121.38;;;10.62;100.00
60244;BME280;46106;51.468;5.814;2023-05-23T21:28:49;102122.53;;;10.58;100.00
60244;BME280;46106;51.468;5.814;2023-05-23T21:31:14;102117.25;;;10.55;100.00
60244;BME280;46106;51.468;5.814;2023-05-23T21:33:41;102124.84;;;10.50;100.00
60244;BME280;46106;51.468;5.814;2023-05-23T21:36:08;102106.38;;;10.37;100.00
60244;BME280;46106;51.468;5.814;2023-05-23T21:38:33;102122.97;;;10.50;100.00
60244;BME280;46106;51.468;5.814;2023-05-23T21:41:02;102113.72;;;10.53;100.00
60244;BME280;46106;51.468;5.814;2023-05-23T21:43:27;102116.53;;;10.51;100.00
60244;BME280;46106;51.468;5.814;2023-05-23T21:45:53;102128.72;;;10.45;100.00
60244;BME280;46106;51.468;5.814;2023-05-23T21:48:18;102124.50;;;10.40;100.00
60244;BME280;46106;51.468;5.814;2023-05-23T21:50:44;102122.81;;;10.37;100.00
60244;BME280;46106;51.468;5.814;2023-05-23T21:53:09;102104.50;;;10.22;100.00
60244;BME280;46106;51.468;5.814;2023-05-23T21:55:34;102127.97;;;10.26;100.00
60244;BME280;46106;51.468;5.814;2023-05-23T21:58:03;102126.94;;;10.28;100.00
60244;BME280;46106;51.468;5.814;2023-05-23T22:00:28;102124.78;;;10.18;100.00
60244;BME280;46106;51.468;5.814;2023-05-23T22:02:58;102128.94;;;10.09;100.00
60244;BME280;46106;51.468;5.814;2023-05-23T22:05:23;102125.94;;;9.98;100.00
60244;BME280;46106;51.468;5.814;2023-05-23T22:07:49;102118.97;;;9.92;100.00
60244;BME280;46106;51.468;5.814;2023-05-23T22:10:14;102122.13;;;9.84;100.00
60244;BME280;46106;51.468;5.814;2023-05-23T22:12:40;102118.84;;;9.78;100.00
60244;BME280;46106;51.468;5.814;2023-05-23T22:15:06;102115.47;;;9.72;100.00
60244;BME280;46106;51.468;5.814;2023-05-23T22:17:32;102125.88;;;9.66;100.00
60244;BME280;46106;51.468;5.814;2023-05-23T22:19:59;102115.81;;;9.66;100.00
60244;BME280;46106;51.468;5.814;2023-05-23T22:22:25;102115.66;;;9.69;100.00
60244;BME280;46106;51.468;5.814;2023-05-23T22:24:51;102118.72;;;9.63;100.00
60244;BME280;46106;51.468;5.814;2023-05-23T22:27:17;102124.44;;;9.59;100.00
60244;BME280;46106;51.468;5.814;2023-05-23T22:29:42;102118.25;;;9.55;100.00
60244;BME280;46106;51.468;5.814;2023-05-23T22:32:08;102124.03;;;9.49;100.00
60244;BME280;46106;51.468;5.814;2023-05-23T22:34:33;102122.63;;;9.42;100.00
60244;BME280;46106;51.468;5.814;2023-05-23T22:36:58;102121.41;;;9.47;100.00
60244;BME280;46106;51.468;5.814;2023-05-23T22:39:25;102125.97;;;9.47;100.00
60244;BME280;46106;51.468;5.814;2023-05-23T22:41:51;102118.91;;;9.43;100.00
60244;BME280;46106;51.468;5.814;2023-05-23T22:44:16;102124.56;;;9.40;100.00
60244;BME280;46106;51.468;5.814;2023-05-23T22:46:42;102129.66;;;9.46;100.00
60244;BME280;46106;51.468;5.814;2023-05-23T22:49:07;102132.75;;;9.40;100.00
60244;BME280;46106;51.468;5.814;2023-05-23T22:51:33;102131.06;;;9.37;100.00
60244;BME280;46106;51.468;5.814;2023-05-23T22:53:59;102129.63;;;9.30;100.00
60244;BME280;46106;51.468;5.814;2023-05-23T22:56:25;102129.63;;;9.12;100.00
60244;BME280;46106;51.468;5.814;2023-05-23T22:58:51;102104.56;;;9.04;100.00
60244;BME280;46106;51.468;5.814;2023-05-23T23:01:16;102122.81;;;9.04;100.00
60244;BME280;46106;51.468;5.814;2023-05-23T23:06:17;102112.00;;;9.18;100.00
60244;BME280;46106;51.468;5.814;2023-05-23T23:08:45;102115.66;;;9.01;100.00
60244;BME280;46106;51.468;5.814;2023-05-23T23:11:12;102103.84;;;9.00;100.00
60244;BME280;46106;51.468;5.814;2023-05-23T23:13:37;102120.38;;;9.15;100.00
60244;BME280;46106;51.468;5.814;2023-05-23T23:16:03;102119.41;;;9.16;100.00
60244;BME280;46106;51.468;5.814;2023-05-23T23:18:28;102122.06;;;9.17;100.00
60244;BME280;46106;51.468;5.814;2023-05-23T23:20:54;102114.84;;;8.99;100.00
60244;BME280;46106;51.468;5.814;2023-05-23T23:23:19;102116.75;;;8.79;100.00
60244;BME280;46106;51.468;5.814;2023-05-23T23:25:45;102120.53;;;8.77;100.00
60244;BME280;46106;51.468;5.814;2023-05-23T23:28:17;102114.72;;;8.65;100.00
60244;BME280;46106;51.468;5.814;2023-05-23T23:30:44;102116.97;;;8.57;100.00
60244;BME280;46106;51.468;5.814;2023-05-23T23:33:10;102128.44;;;8.64;100.00
60244;BME280;46106;51.468;5.814;2023-05-23T23:35:36;102119.03;;;8.52;100.00
60244;BME280;46106;51.468;5.814;2023-05-23T23:38:01;102109.50;;;8.42;100.00
60244;BME280;46106;51.468;5.814;2023-05-23T23:40:27;102110.63;;;8.38;100.00
60244;BME280;46106;51.468;5.814;2023-05-23T23:42:53;102122.44;;;8.38;100.00